sensor_id;sensor_type;location;lat;lon;timestamp;temperature;humidity
31369;DHT22;18004;48.416;10.066;2023-02-28T00:00:26;-2.00;95.50
31369;DHT22;18004;48.416;10.066;2023-02-28T00:02:53;-2.00;95.00
31369;DHT22;18004;48.416;10.066;2023-02-28T00:05:20;-2.00;94.50
31369;DHT22;18004;48.416;10.066;2023-02-28T00:07:47;-2.00;93.70
31369;DHT22;18004;48.416;10.066;2023-02-28T00:10:35;-1.90;93.80
31369;DHT22;18004;48.416;10.066;2023-02-28T00:13:04;-1.90;92.40
31369;DHT22;18004;48.416;10.066;2023-02-28T00:15:31;-1.90;92.30
31369;DHT22;18004;48.416;10.066;2023-02-28T00:17:57;-1.90;91.00
31369;DHT22;18004;48.416;10.066;2023-02-28T00:20:23;-1.90;91.00
31369;DHT22;18004;48.416;10.066;2023-02-28T00:22:51;-1.90;90.50
31369;DHT22;18004;48.416;10.066;2023-02-28T00:25:23;-1.90;90.20
31369;DHT22;18004;48.416;10.066;2023-02-28T00:27:49;-1.90;89.20
31369;DHT22;18004;48.416;10.066;2023-02-28T00:30:17;-1.90;88.50
31369;DHT22;18004;48.416;10.066;2023-02-28T00:32:43;-1.90;86.90
31369;DHT22;18004;48.416;10.066;2023-02-28T00:35:10;-1.90;86.70
31369;DHT22;18004;48.416;10.066;2023-02-28T00:37:36;-1.90;86.20
31369;DHT22;18004;48.416;10.066;2023-02-28T00:40:03;-1.90;84.00
31369;DHT22;18004;48.416;10.066;2023-02-28T00:42:31;-1.90;84.20
31369;DHT22;18004;48.416;10.066;2023-02-28T00:44:57;-1.90;83.10
31369;DHT22;18004;48.416;10.066;2023-02-28T00:47:23;-1.90;81.40
31369;DHT22;18004;48.416;10.066;2023-02-28T00:49:48;-1.90;81.20
31369;DHT22;18004;48.416;10.066;2023-02-28T00:52:14;-1.90;80.70
31369;DHT22;18004;48.416;10.066;2023-02-28T00:54:40;-1.90;80.40
31369;DHT22;18004;48.416;10.066;2023-02-28T00:57:05;-1.90;80.20
31369;DHT22;18004;48.416;10.066;2023-02-28T00:59:31;-1.90;79.50
31369;DHT22;18004;48.416;10.066;2023-02-28T01:01:57;-1.90;79.50
31369;DHT22;18004;48.416;10.066;2023-02-28T01:04:23;-1.90;79.60
31369;DHT22;18004;48.416;10.066;2023-02-28T01:06:48;-1.80;78.10
31369;DHT22;18004;48.416;10.066;2023-02-28T01:09:14;-1.80;79.30
31369;DHT22;18004;48.416;10.066;2023-02-28T01:11:41;-1.80;77.60
31369;DHT22;18004;48.416;10.066;2023-02-28T01:14:14;-1.80;78.10
31369;DHT22;18004;48.416;10.066;2023-02-28T01:16:40;-1.80;78.30
31369;DHT22;18004;48.416;10.066;2023-02-28T01:19:06;-1.80;77.90
31369;DHT22;18004;48.416;10.066;2023-02-28T01:21:32;-1.80;76.10
31369;DHT22;18004;48.416;10.066;2023-02-28T01:23:58;-1.80;76.50
31369;DHT22;18004;48.416;10.066;2023-02-28T01:26:24;-1.80;75.90
31369;DHT22;18004;48.416;10.066;2023-02-28T01:28:51;-1.80;75.70
31369;DHT22;18004;48.416;10.066;2023-02-28T01:31:18;-1.80;74.90
31369;DHT22;18004;48.416;10.066;2023-02-28T01:33:44;-1.80;75.50
31369;DHT22;18004;48.416;10.066;2023-02-28T01:36:17;-1.80;75.80
31369;DHT22;18004;48.416;10.066;2023-02-28T01:38:44;-1.80;75.50
31369;DHT22;18004;48.416;10.066;2023-02-28T01:41:25;-1.80;75.90
31369;DHT22;18004;48.416;10.066;2023-02-28T01:44:02;-1.80;75.30
31369;DHT22;18004;48.416;10.066;2023-02-28T01:46:30;-1.80;74.10
31369;DHT22;18004;48.416;10.066;2023-02-28T01:49:12;-1.80;74.80
31369;DHT22;18004;48.416;10.066;2023-02-28T01:51:51;-1.80;73.60
31369;DHT22;18004;48.416;10.066;2023-02-28T01:54:26;-1.80;74.20
31369;DHT22;18004;48.416;10.066;2023-02-28T01:56:59;-1.80;71.50
31369;DHT22;18004;48.416;10.066;2023-02-28T01:59:33;-1.80;73.40
31369;DHT22;18004;48.416;10.066;2023-02-28T02:02:00;-1.80;73.60
31369;DHT22;18004;48.416;10.066;2023-02-28T02:04:30;-1.80;72.90
31369;DHT22;18004;48.416;10.066;2023-02-28T02:06:58;-1.80;72.00
31369;DHT22;18004;48.416;10.066;2023-02-28T02:09:24;-1.80;72.80
31369;DHT22;18004;48.416;10.066;2023-02-28T02:11:50;-1.80;71.60
31369;DHT22;18004;48.416;10.066;2023-02-28T02:23:14;-1.80;74.10
31369;DHT22;18004;48.416;10.066;2023-02-28T02:25:55;-1.80;72.70
31369;DHT22;18004;48.416;10.066;2023-02-28T02:28:56;-1.80;73.70
31369;DHT22;18004;48.416;10.066;2023-02-28T02:34:28;-1.80;72.70
31369;DHT22;18004;48.416;10.066;2023-02-28T02:41:59;-1.90;73.60
31369;DHT22;18004;48.416;10.066;2023-02-28T02:47:13;-1.80;71.70
31369;DHT22;18004;48.416;10.066;2023-02-28T02:49:43;-1.80;72.50
31369;DHT22;18004;48.416;10.066;2023-02-28T02:52:14;-1.80;72.90
31369;DHT22;18004;48.416;10.066;2023-02-28T02:54:45;-1.90;72.80
31369;DHT22;18004;48.416;10.066;2023-02-28T02:57:18;-1.90;73.70
31369;DHT22;18004;48.416;10.066;2023-02-28T02:59:45;-1.80;72.50
31369;DHT22;18004;48.416;10.066;2023-02-28T03:02:12;-1.80;71.60
31369;DHT22;18004;48.416;10.066;2023-02-28T03:04:46;-1.90;71.70
31369;DHT22;18004;48.416;10.066;2023-02-28T03:07:13;-1.80;72.90
31369;DHT22;18004;48.416;10.066;2023-02-28T03:09:38;-1.90;71.00
31369;DHT22;18004;48.416;10.066;2023-02-28T03:12:09;-1.80;70.60
31369;DHT22;18004;48.416;10.066;2023-02-28T03:23:23;-1.80;72.40
31369;DHT22;18004;48.416;10.066;2023-02-28T03:25:56;-1.90;71.20
31369;DHT22;18004;48.416;10.066;2023-02-28T03:31:22;-1.80;71.20
31369;DHT22;18004;48.416;10.066;2023-02-28T03:34:01;-1.80;71.30
31369;DHT22;18004;48.416;10.066;2023-02-28T03:36:41;-1.80;70.90
31369;DHT22;18004;48.416;10.066;2023-02-28T03:39:15;-1.80;71.60
31369;DHT22;18004;48.416;10.066;2023-02-28T03:47:21;-1.80;71.50
31369;DHT22;18004;48.416;10.066;2023-02-28T03:50:05;-1.80;71.40
31369;DHT22;18004;48.416;10.066;2023-02-28T03:52:36;-1.80;70.80
31369;DHT22;18004;48.416;10.066;2023-02-28T03:55:08;-1.80;70.90
31369;DHT22;18004;48.416;10.066;2023-02-28T03:58:01;-1.80;71.60
31369;DHT22;18004;48.416;10.066;2023-02-28T04:00:38;-1.80;71.70
31369;DHT22;18004;48.416;10.066;2023-02-28T04:03:06;-1.80;72.10
31369;DHT22;18004;48.416;10.066;2023-02-28T04:05:32;-1.80;72.50
31369;DHT22;18004;48.416;10.066;2023-02-28T04:08:08;-1.80;71.40
31369;DHT22;18004;48.416;10.066;2023-02-28T04:10:34;-1.80;71.90
31369;DHT22;18004;48.416;10.066;2023-02-28T04:13:00;-1.80;72.60
31369;DHT22;18004;48.416;10.066;2023-02-28T04:15:25;-1.80;73.10
31369;DHT22;18004;48.416;10.066;2023-02-28T04:17:53;-1.90;73.70
31369;DHT22;18004;48.416;10.066;2023-02-28T04:20:18;-1.80;73.60
31369;DHT22;18004;48.416;10.066;2023-02-28T04:22:44;-1.80;73.70
31369;DHT22;18004;48.416;10.066;2023-02-28T04:25:10;-1.80;73.70
31369;DHT22;18004;48.416;10.066;2023-02-28T04:27:36;-1.80;73.10
31369;DHT22;18004;48.416;10.066;2023-02-28T04:30:02;-1.80;75.10
31369;DHT22;18004;48.416;10.066;2023-02-28T04:32:28;-1.80;74.80
31369;DHT22;18004;48.416;10.066;2023-02-28T04:34:54;-1.80;74.30
31369;DHT22;18004;48.416;10.066;2023-02-28T04:37:19;-1.80;75.10
31369;DHT22;18004;48.416;10.066;2023-02-28T04:39:45;-1.80;74.90
31369;DHT22;18004;48.416;10.066;2023-02-28T04:42:12;-1.80;74.80
31369;DHT22;18004;48.416;10.066;2023-02-28T04:44:37;-1.80;73.50
31369;DHT22;18004;48.416;10.066;2023-02-28T04:47:03;-1.80;75.50
31369;DHT22;18004;48.416;10.066;2023-02-28T04:49:29;-1.80;75.30
31369;DHT22;18004;48.416;10.066;2023-02-28T04:51:55;-1.70;74.70
31369;DHT22;18004;48.416;10.066;2023-02-28T04:54:21;-1.70;75.30
31369;DHT22;18004;48.416;10.066;2023-02-28T04:56:47;-1.80;74.90
31369;DHT22;18004;48.416;10.066;2023-02-28T04:59:15;-1.80;74.50
31369;DHT22;18004;48.416;10.066;2023-02-28T05:01:46;-1.80;74.60
31369;DHT22;18004;48.416;10.066;2023-02-28T05:04:12;-1.70;74.90
31369;DHT22;18004;48.416;10.066;2023-02-28T05:06:38;-1.70;74.40
31369;DHT22;18004;48.416;10.066;2023-02-28T05:09:03;-1.80;75.10
31369;DHT22;18004;48.416;10.066;2023-02-28T05:11:31;-1.70;75.30
31369;DHT22;18004;48.416;10.066;2023-02-28T05:14:07;-1.70;75.10
31369;DHT22;18004;48.416;10.066;2023-02-28T05:16:34;-1.70;75.00
31369;DHT22;18004;48.416;10.066;2023-02-28T05:19:00;-1.70;75.40
31369;DHT22;18004;48.416;10.066;2023-02-28T05:21:31;-1.80;75.40
31369;DHT22;18004;48.416;10.066;2023-02-28T05:23:59;-1.80;76.00
31369;DHT22;18004;48.416;10.066;2023-02-28T05:26:26;-1.80;75.10
31369;DHT22;18004;48.416;10.066;2023-02-28T05:28:52;-1.80;75.00
31369;DHT22;18004;48.416;10.066;2023-02-28T05:31:18;-1.80;75.00
31369;DHT22;18004;48.416;10.066;2023-02-28T05:33:44;-1.70;74.60
31369;DHT22;18004;48.416;10.066;2023-02-28T05:36:10;-1.70;75.70
31369;DHT22;18004;48.416;10.066;2023-02-28T05:38:36;-1.80;75.30
31369;DHT22;18004;48.416;10.066;2023-02-28T05:41:11;-1.80;75.70
31369;DHT22;18004;48.416;10.066;2023-02-28T05:43:37;-1.80;75.70
31369;DHT22;18004;48.416;10.066;2023-02-28T05:46:05;-1.80;75.80
31369;DHT22;18004;48.416;10.066;2023-02-28T05:48:31;-1.70;75.40
31369;DHT22;18004;48.416;10.066;2023-02-28T05:50:58;-1.70;75.30
31369;DHT22;18004;48.416;10.066;2023-02-28T05:53:24;-1.70;75.50
31369;DHT22;18004;48.416;10.066;2023-02-28T05:55:49;-1.70;75.60
31369;DHT22;18004;48.416;10.066;2023-02-28T05:58:15;-1.70;76.10
31369;DHT22;18004;48.416;10.066;2023-02-28T06:00:41;-1.70;75.90
31369;DHT22;18004;48.416;10.066;2023-02-28T06:03:07;-1.70;76.10
31369;DHT22;18004;48.416;10.066;2023-02-28T06:05:32;-1.80;76.70
31369;DHT22;18004;48.416;10.066;2023-02-28T06:07:58;-1.80;75.50
31369;DHT22;18004;48.416;10.066;2023-02-28T06:10:24;-1.80;75.60
31369;DHT22;18004;48.416;10.066;2023-02-28T06:12:50;-1.80;75.00
31369;DHT22;18004;48.416;10.066;2023-02-28T06:15:16;-1.80;74.80
31369;DHT22;18004;48.416;10.066;2023-02-28T06:17:43;-1.80;75.40
31369;DHT22;18004;48.416;10.066;2023-02-28T06:20:10;-1.80;76.20
31369;DHT22;18004;48.416;10.066;2023-02-28T06:22:39;-1.80;75.50
31369;DHT22;18004;48.416;10.066;2023-02-28T06:25:05;-1.80;75.50
31369;DHT22;18004;48.416;10.066;2023-02-28T06:27:32;-1.70;75.40
31369;DHT22;18004;48.416;10.066;2023-02-28T06:29:58;-1.80;75.70
31369;DHT22;18004;48.416;10.066;2023-02-28T06:32:24;-1.80;75.60
31369;DHT22;18004;48.416;10.066;2023-02-28T06:34:50;-1.80;77.00
31369;DHT22;18004;48.416;10.066;2023-02-28T06:37:17;-1.80;75.80
31369;DHT22;18004;48.416;10.066;2023-02-28T06:39:43;-1.90;75.80
31369;DHT22;18004;48.416;10.066;2023-02-28T06:42:09;-1.90;76.00
31369;DHT22;18004;48.416;10.066;2023-02-28T06:44:35;-1.80;76.60
31369;DHT22;18004;48.416;10.066;2023-02-28T06:47:05;-1.90;76.30
31369;DHT22;18004;48.416;10.066;2023-02-28T06:49:33;-1.80;76.50
31369;DHT22;18004;48.416;10.066;2023-02-28T06:51:59;-1.80;75.90
31369;DHT22;18004;48.416;10.066;2023-02-28T06:54:25;-1.80;76.30
31369;DHT22;18004;48.416;10.066;2023-02-28T06:56:51;-1.80;76.40
31369;DHT22;18004;48.416;10.066;2023-02-28T06:59:17;-1.80;76.30
31369;DHT22;18004;48.416;10.066;2023-02-28T07:01:43;-1.80;76.10
31369;DHT22;18004;48.416;10.066;2023-02-28T07:04:08;-1.80;75.70
31369;DHT22;18004;48.416;10.066;2023-02-28T07:06:34;-1.80;76.20
31369;DHT22;18004;48.416;10.066;2023-02-28T07:09:00;-1.80;76.30
31369;DHT22;18004;48.416;10.066;2023-02-28T07:11:27;-1.80;76.30
31369;DHT22;18004;48.416;10.066;2023-02-28T07:13:54;-1.80;76.40
31369;DHT22;18004;48.416;10.066;2023-02-28T07:16:21;-1.80;77.00
31369;DHT22;18004;48.416;10.066;2023-02-28T07:18:47;-1.80;76.00
31369;DHT22;18004;48.416;10.066;2023-02-28T07:21:13;-1.90;76.30
31369;DHT22;18004;48.416;10.066;2023-02-28T07:23:40;-1.90;76.70
31369;DHT22;18004;48.416;10.066;2023-02-28T07:26:10;-1.80;76.90
31369;DHT22;18004;48.416;10.066;2023-02-28T07:28:37;-1.80;77.30
31369;DHT22;18004;48.416;10.066;2023-02-28T07:31:07;-1.80;76.20
31369;DHT22;18004;48.416;10.066;2023-02-28T07:33:33;-1.80;76.40
31369;DHT22;18004;48.416;10.066;2023-02-28T07:36:08;-1.80;75.70
31369;DHT22;18004;48.416;10.066;2023-02-28T07:38:35;-1.90;76.80
31369;DHT22;18004;48.416;10.066;2023-02-28T07:41:01;-1.80;77.40
31369;DHT22;18004;48.416;10.066;2023-02-28T07:43:30;-1.80;77.50
31369;DHT22;18004;48.416;10.066;2023-02-28T07:46:08;-1.70;77.00
31369;DHT22;18004;48.416;10.066;2023-02-28T07:48:35;-1.70;77.10
31369;DHT22;18004;48.416;10.066;2023-02-28T07:51:01;-1.80;77.40
31369;DHT22;18004;48.416;10.066;2023-02-28T07:53:27;-1.80;76.90
31369;DHT22;18004;48.416;10.066;2023-02-28T07:55:58;-1.80;76.90
31369;DHT22;18004;48.416;10.066;2023-02-28T07:58:24;-1.80;76.20
31369;DHT22;18004;48.416;10.066;2023-02-28T08:00:50;-1.80;77.30
31369;DHT22;18004;48.416;10.066;2023-02-28T08:03:18;-1.80;77.10
31369;DHT22;18004;48.416;10.066;2023-02-28T08:05:44;-1.80;78.00
31369;DHT22;18004;48.416;10.066;2023-02-28T08:08:10;-1.70;78.40
31369;DHT22;18004;48.416;10.066;2023-02-28T08:10:36;-1.70;77.80
31369;DHT22;18004;48.416;10.066;2023-02-28T08:13:02;-1.70;77.20
31369;DHT22;18004;48.416;10.066;2023-02-28T08:15:28;-1.70;76.20
31369;DHT22;18004;48.416;10.066;2023-02-28T08:17:54;-1.70;77.00
31369;DHT22;18004;48.416;10.066;2023-02-28T08:20:22;-1.70;77.20
31369;DHT22;18004;48.416;10.066;2023-02-28T08:22:49;-1.80;75.50
31369;DHT22;18004;48.416;10.066;2023-02-28T08:25:15;-1.80;77.00
31369;DHT22;18004;48.416;10.066;2023-02-28T08:27:42;-1.70;77.40
31369;DHT22;18004;48.416;10.066;2023-02-28T08:30:12;-1.60;77.20
31369;DHT22;18004;48.416;10.066;2023-02-28T08:32:38;-1.60;76.20
31369;DHT22;18004;48.416;10.066;2023-02-28T08:35:05;-1.60;76.80
31369;DHT22;18004;48.416;10.066;2023-02-28T08:37:31;-1.60;75.30
31369;DHT22;18004;48.416;10.066;2023-02-28T08:39:56;-1.50;76.10
31369;DHT22;18004;48.416;10.066;2023-02-28T08:42:23;-1.50;73.80
31369;DHT22;18004;48.416;10.066;2023-02-28T08:44:49;-1.50;74.60
31369;DHT22;18004;48.416;10.066;2023-02-28T08:47:15;-1.40;74.40
31369;DHT22;18004;48.416;10.066;2023-02-28T08:49:41;-1.40;73.90
31369;DHT22;18004;48.416;10.066;2023-02-28T08:52:06;-1.40;74.10
31369;DHT22;18004;48.416;10.066;2023-02-28T08:54:32;-1.40;72.90
31369;DHT22;18004;48.416;10.066;2023-02-28T08:57:00;-1.50;73.00
31369;DHT22;18004;48.416;10.066;2023-02-28T08:59:25;-1.40;73.80
31369;DHT22;18004;48.416;10.066;2023-02-28T09:01:51;-1.40;70.90
31369;DHT22;18004;48.416;10.066;2023-02-28T09:04:17;-1.40;71.70
31369;DHT22;18004;48.416;10.066;2023-02-28T09:06:43;-1.30;71.40
31369;DHT22;18004;48.416;10.066;2023-02-28T09:09:10;-1.30;70.80
31369;DHT22;18004;48.416;10.066;2023-02-28T09:11:36;-1.20;71.20
31369;DHT22;18004;48.416;10.066;2023-02-28T09:14:02;-1.20;71.60
31369;DHT22;18004;48.416;10.066;2023-02-28T09:16:30;-1.10;72.50
31369;DHT22;18004;48.416;10.066;2023-02-28T09:18:56;-1.20;70.00
31369;DHT22;18004;48.416;10.066;2023-02-28T09:21:22;-1.20;69.10
31369;DHT22;18004;48.416;10.066;2023-02-28T09:23:49;-1.20;69.90
31369;DHT22;18004;48.416;10.066;2023-02-28T09:26:18;-1.20;70.00
31369;DHT22;18004;48.416;10.066;2023-02-28T09:28:44;-1.00;70.10
31369;DHT22;18004;48.416;10.066;2023-02-28T09:31:13;-0.90;70.20
31369;DHT22;18004;48.416;10.066;2023-02-28T09:33:39;-0.90;67.40
31369;DHT22;18004;48.416;10.066;2023-02-28T09:36:06;-0.90;66.30
31369;DHT22;18004;48.416;10.066;2023-02-28T09:38:31;-0.90;66.60
31369;DHT22;18004;48.416;10.066;2023-02-28T09:41:12;-0.80;67.30
31369;DHT22;18004;48.416;10.066;2023-02-28T09:43:42;-0.80;65.20
31369;DHT22;18004;48.416;10.066;2023-02-28T09:46:32;-0.90;66.70
31369;DHT22;18004;48.416;10.066;2023-02-28T09:49:02;-0.80;64.80
31369;DHT22;18004;48.416;10.066;2023-02-28T09:51:53;-0.70;66.20
31369;DHT22;18004;48.416;10.066;2023-02-28T09:54:22;-0.60;66.40
31369;DHT22;18004;48.416;10.066;2023-02-28T09:56:53;-0.60;64.10
31369;DHT22;18004;48.416;10.066;2023-02-28T09:59:41;-0.50;63.30
31369;DHT22;18004;48.416;10.066;2023-02-28T10:04:57;-0.30;62.00
31369;DHT22;18004;48.416;10.066;2023-02-28T10:10:36;-0.30;60.30
31369;DHT22;18004;48.416;10.066;2023-02-28T10:13:13;-0.20;57.40
31369;DHT22;18004;48.416;10.066;2023-02-28T10:15:41;-0.40;58.30
31369;DHT22;18004;48.416;10.066;2023-02-28T10:18:14;-0.30;61.00
31369;DHT22;18004;48.416;10.066;2023-02-28T10:20:43;-0.20;58.10
31369;DHT22;18004;48.416;10.066;2023-02-28T10:25:38;0.00;57.30
31369;DHT22;18004;48.416;10.066;2023-02-28T10:28:12;0.00;55.90
31369;DHT22;18004;48.416;10.066;2023-02-28T10:30:45;0.00;55.70
31369;DHT22;18004;48.416;10.066;2023-02-28T10:33:38;0.10;56.80
31369;DHT22;18004;48.416;10.066;2023-02-28T10:36:04;0.20;57.60
31369;DHT22;18004;48.416;10.066;2023-02-28T10:38:37;0.50;57.40
31369;DHT22;18004;48.416;10.066;2023-02-28T10:41:12;0.60;52.90
31369;DHT22;18004;48.416;10.066;2023-02-28T10:43:40;0.70;51.30
31369;DHT22;18004;48.416;10.066;2023-02-28T10:46:11;0.90;48.90
31369;DHT22;18004;48.416;10.066;2023-02-28T10:48:57;0.90;50.00
31369;DHT22;18004;48.416;10.066;2023-02-28T10:51:24;0.90;48.80
31369;DHT22;18004;48.416;10.066;2023-02-28T10:53:52;0.70;52.20
31369;DHT22;18004;48.416;10.066;2023-02-28T10:56:23;0.80;50.30
31369;DHT22;18004;48.416;10.066;2023-02-28T11:01:42;1.00;47.50
31369;DHT22;18004;48.416;10.066;2023-02-28T11:07:03;1.20;49.10
31369;DHT22;18004;48.416;10.066;2023-02-28T11:09:34;1.30;48.20
31369;DHT22;18004;48.416;10.066;2023-02-28T11:12:05;1.40;45.40
31369;DHT22;18004;48.416;10.066;2023-02-28T11:14:35;1.50;46.10
31369;DHT22;18004;48.416;10.066;2023-02-28T11:17:20;1.60;44.50
31369;DHT22;18004;48.416;10.066;2023-02-28T11:19:48;1.20;45.50
31369;DHT22;18004;48.416;10.066;2023-02-28T11:22:20;1.20;46.40
31369;DHT22;18004;48.416;10.066;2023-02-28T11:24:50;1.40;49.40
31369;DHT22;18004;48.416;10.066;2023-02-28T11:30:00;1.40;45.10
31369;DHT22;18004;48.416;10.066;2023-02-28T11:32:28;1.50;47.70
31369;DHT22;18004;48.416;10.066;2023-02-28T11:35:03;1.60;45.00
31369;DHT22;18004;48.416;10.066;2023-02-28T11:37:31;1.50;43.40
31369;DHT22;18004;48.416;10.066;2023-02-28T11:39:57;1.60;42.20
31369;DHT22;18004;48.416;10.066;2023-02-28T11:45:19;1.50;44.50
31369;DHT22;18004;48.416;10.066;2023-02-28T11:48:04;1.70;41.90
31369;DHT22;18004;48.416;10.066;2023-02-28T11:50:54;1.50;42.80
31369;DHT22;18004;48.416;10.066;2023-02-28T11:53:53;1.80;43.10
31369;DHT22;18004;48.416;10.066;2023-02-28T11:56:44;2.00;39.10
31369;DHT22;18004;48.416;10.066;2023-02-28T12:02:23;2.30;36.80
31369;DHT22;18004;48.416;10.066;2023-02-28T12:10:26;2.60;34.40
31369;DHT22;18004;48.416;10.066;2023-02-28T12:24:08;3.40;28.30
31369;DHT22;18004;48.416;10.066;2023-02-28T12:26:44;3.70;28.00
31369;DHT22;18004;48.416;10.066;2023-02-28T12:31:47;3.80;26.40
31369;DHT22;18004;48.416;10.066;2023-02-28T12:34:49;3.80;26.10
31369;DHT22;18004;48.416;10.066;2023-02-28T12:37:19;3.80;26.40
31369;DHT22;18004;48.416;10.066;2023-02-28T12:39:54;3.70;25.90
31369;DHT22;18004;48.416;10.066;2023-02-28T12:42:27;3.50;26.20
31369;DHT22;18004;48.416;10.066;2023-02-28T12:45:00;3.50;26.20
31369;DHT22;18004;48.416;10.066;2023-02-28T12:47:27;3.20;26.70
31369;DHT22;18004;48.416;10.066;2023-02-28T12:55:41;3.50;26.20
31369;DHT22;18004;48.416;10.066;2023-02-28T13:04:32;4.00;25.80
31369;DHT22;18004;48.416;10.066;2023-02-28T13:09:55;3.50;26.20
31369;DHT22;18004;48.416;10.066;2023-02-28T13:12:22;3.80;26.40
31369;DHT22;18004;48.416;10.066;2023-02-28T13:14:49;3.80;23.90
31369;DHT22;18004;48.416;10.066;2023-02-28T13:17:23;3.80;23.70
31369;DHT22;18004;48.416;10.066;2023-02-28T13:22:22;3.60;23.50
31369;DHT22;18004;48.416;10.066;2023-02-28T13:27:50;3.80;25.90
31369;DHT22;18004;48.416;10.066;2023-02-28T13:36:30;3.80;23.20
31369;DHT22;18004;48.416;10.066;2023-02-28T13:39:02;4.00;23.80
31369;DHT22;18004;48.416;10.066;2023-02-28T13:44:06;3.90;22.90
31369;DHT22;18004;48.416;10.066;2023-02-28T13:46:35;3.80;23.70
31369;DHT22;18004;48.416;10.066;2023-02-28T13:57:44;3.90;22.30
31369;DHT22;18004;48.416;10.066;2023-02-28T14:00:42;4.00;23.00
31369;DHT22;18004;48.416;10.066;2023-02-28T14:06:15;4.10;23.20
31369;DHT22;18004;48.416;10.066;2023-02-28T14:11:44;4.20;22.30
31369;DHT22;18004;48.416;10.066;2023-02-28T14:17:13;3.90;22.30
31369;DHT22;18004;48.416;10.066;2023-02-28T14:19:41;3.70;22.50
31369;DHT22;18004;48.416;10.066;2023-02-28T14:32:37;3.80;23.20
31369;DHT22;18004;48.416;10.066;2023-02-28T14:37:51;3.60;22.30
31369;DHT22;18004;48.416;10.066;2023-02-28T14:40:33;3.70;22.90
31369;DHT22;18004;48.416;10.066;2023-02-28T14:43:04;3.80;22.40
31369;DHT22;18004;48.416;10.066;2023-02-28T14:45:32;3.80;23.10
31369;DHT22;18004;48.416;10.066;2023-02-28T14:47:59;3.80;21.70
31369;DHT22;18004;48.416;10.066;2023-02-28T14:50:35;3.80;22.50
31369;DHT22;18004;48.416;10.066;2023-02-28T14:53:02;3.80;21.90
31369;DHT22;18004;48.416;10.066;2023-02-28T14:55:34;3.90;22.00
31369;DHT22;18004;48.416;10.066;2023-02-28T14:58:06;4.10;22.40
31369;DHT22;18004;48.416;10.066;2023-02-28T15:00:51;4.10;21.30
31369;DHT22;18004;48.416;10.066;2023-02-28T15:03:33;4.00;21.50
31369;DHT22;18004;48.416;10.066;2023-02-28T15:06:04;4.00;21.50
31369;DHT22;18004;48.416;10.066;2023-02-28T15:08:31;4.00;21.00
31369;DHT22;18004;48.416;10.066;2023-02-28T15:11:02;3.90;21.40
31369;DHT22;18004;48.416;10.066;2023-02-28T15:13:44;3.80;21.60
31369;DHT22;18004;48.416;10.066;2023-02-28T15:16:13;3.80;21.40
31369;DHT22;18004;48.416;10.066;2023-02-28T15:18:51;3.70;22.10
31369;DHT22;18004;48.416;10.066;2023-02-28T15:21:23;3.60;22.70
31369;DHT22;18004;48.416;10.066;2023-02-28T15:24:10;3.70;22.60
31369;DHT22;18004;48.416;10.066;2023-02-28T15:26:42;3.60;22.60
31369;DHT22;18004;48.416;10.066;2023-02-28T15:29:18;3.60;23.20
31369;DHT22;18004;48.416;10.066;2023-02-28T15:31:50;3.60;22.60
31369;DHT22;18004;48.416;10.066;2023-02-28T15:34:22;3.60;22.30
31369;DHT22;18004;48.416;10.066;2023-02-28T15:36:48;3.60;22.70
31369;DHT22;18004;48.416;10.066;2023-02-28T15:39:26;3.70;21.90
31369;DHT22;18004;48.416;10.066;2023-02-28T15:42:21;3.80;21.60
31369;DHT22;18004;48.416;10.066;2023-02-28T15:44:47;3.90;21.30
31369;DHT22;18004;48.416;10.066;2023-02-28T15:47:20;3.90;20.80
31369;DHT22;18004;48.416;10.066;2023-02-28T15:49:56;3.70;21.20
31369;DHT22;18004;48.416;10.066;2023-02-28T15:52:31;3.60;22.50
31369;DHT22;18004;48.416;10.066;2023-02-28T15:55:08;3.50;22.90
31369;DHT22;18004;48.416;10.066;2023-02-28T15:57:34;3.50;23.20
31369;DHT22;18004;48.416;10.066;2023-02-28T16:00:03;3.50;23.10
31369;DHT22;18004;48.416;10.066;2023-02-28T16:02:36;3.50;23.80
31369;DHT22;18004;48.416;10.066;2023-02-28T16:07:34;3.30;23.70
31369;DHT22;18004;48.416;10.066;2023-02-28T16:10:00;3.20;23.90
31369;DHT22;18004;48.416;10.066;2023-02-28T16:12:31;3.20;23.90
31369;DHT22;18004;48.416;10.066;2023-02-28T16:15:01;3.20;24.00
31369;DHT22;18004;48.416;10.066;2023-02-28T16:17:35;3.30;23.40
31369;DHT22;18004;48.416;10.066;2023-02-28T16:20:05;3.10;24.90
31369;DHT22;18004;48.416;10.066;2023-02-28T16:22:31;3.00;24.30
31369;DHT22;18004;48.416;10.066;2023-02-28T16:24:57;3.00;25.10
31369;DHT22;18004;48.416;10.066;2023-02-28T16:27:31;2.90;25.80
31369;DHT22;18004;48.416;10.066;2023-02-28T16:29:58;2.90;25.80
31369;DHT22;18004;48.416;10.066;2023-02-28T16:32:24;2.80;25.70
31369;DHT22;18004;48.416;10.066;2023-02-28T16:34:49;2.80;26.90
31369;DHT22;18004;48.416;10.066;2023-02-28T16:37:17;2.70;26.20
31369;DHT22;18004;48.416;10.066;2023-02-28T16:39:44;2.70;27.10
31369;DHT22;18004;48.416;10.066;2023-02-28T16:42:21;2.70;27.80
31369;DHT22;18004;48.416;10.066;2023-02-28T16:44:47;2.70;27.50
31369;DHT22;18004;48.416;10.066;2023-02-28T16:47:13;2.70;26.90
31369;DHT22;18004;48.416;10.066;2023-02-28T16:49:39;2.60;26.70
31369;DHT22;18004;48.416;10.066;2023-02-28T16:52:08;2.60;27.50
31369;DHT22;18004;48.416;10.066;2023-02-28T16:54:33;2.60;27.80
31369;DHT22;18004;48.416;10.066;2023-02-28T16:56:59;2.60;27.90
31369;DHT22;18004;48.416;10.066;2023-02-28T16:59:26;2.50;28.20
31369;DHT22;18004;48.416;10.066;2023-02-28T17:01:53;2.40;28.70
31369;DHT22;18004;48.416;10.066;2023-02-28T17:04:19;2.40;29.00
31369;DHT22;18004;48.416;10.066;2023-02-28T17:06:45;2.30;28.90
31369;DHT22;18004;48.416;10.066;2023-02-28T17:09:17;2.30;30.00
31369;DHT22;18004;48.416;10.066;2023-02-28T17:11:43;2.20;31.40
31369;DHT22;18004;48.416;10.066;2023-02-28T17:14:10;2.20;32.50
31369;DHT22;18004;48.416;10.066;2023-02-28T17:16:36;2.10;33.00
31369;DHT22;18004;48.416;10.066;2023-02-28T17:19:07;2.10;33.60
31369;DHT22;18004;48.416;10.066;2023-02-28T17:21:36;2.10;34.50
31369;DHT22;18004;48.416;10.066;2023-02-28T17:24:03;2.10;35.70
31369;DHT22;18004;48.416;10.066;2023-02-28T17:26:29;1.90;36.80
31369;DHT22;18004;48.416;10.066;2023-02-28T17:28:57;1.90;36.80
31369;DHT22;18004;48.416;10.066;2023-02-28T17:31:24;1.90;36.90
31369;DHT22;18004;48.416;10.066;2023-02-28T17:33:51;1.80;38.20
31369;DHT22;18004;48.416;10.066;2023-02-28T17:36:25;1.80;38.20
31369;DHT22;18004;48.416;10.066;2023-02-28T17:38:53;1.80;38.90
31369;DHT22;18004;48.416;10.066;2023-02-28T17:41:21;1.70;39.20
31369;DHT22;18004;48.416;10.066;2023-02-28T17:43:47;1.60;41.00
31369;DHT22;18004;48.416;10.066;2023-02-28T17:46:18;1.60;43.00
31369;DHT22;18004;48.416;10.066;2023-02-28T17:48:47;1.50;44.20
31369;DHT22;18004;48.416;10.066;2023-02-28T17:51:14;1.50;45.10
31369;DHT22;18004;48.416;10.066;2023-02-28T17:53:40;1.40;44.40
31369;DHT22;18004;48.416;10.066;2023-02-28T17:56:18;1.40;45.00
31369;DHT22;18004;48.416;10.066;2023-02-28T17:58:45;1.40;45.30